Time;durP1;ratioP1;P1;durP2;ratioP2;P2;SDS_P1;SDS_P2;PMS_P1;PMS_P2;Temp;Humidity;BMP_temperature;BMP_pressure;BME280_temperature;BME280_humidity;BME280_pressure;Samples;Min_cycle;Max_cycle;Signal;HPM_P1;HPM_P2
2023/05/15 00:00:18;;;;;;;1.98;1.88;;;;;;;;;;5096445;28;20047;-66
2023/05/15 00:02:44;;;;;;;2.88;1.50;;;;;;;;;;5096123;28;20443;-66
2023/05/15 00:05:11;;;;;;;2.55;1.80;;;;;;;;;;5096198;28;20039;-66
2023/05/15 00:07:36;;;;;;;3.03;1.80;;;;;;;;;;5096365;28;20119;-66
2023/05/15 00:10:01;;;;;;;1.73;1.63;;;;;;;;;;5096023;28;20108;-64
2023/05/15 00:12:41;;;;;;;1.83;1.73;;;;;;;;;;5096020;22;20062;-65
2023/05/15 00:15:07;;;;;;;1.63;1.52;;;;;;;;;;5066539;28;20052;-66
2023/05/15 00:17:32;;;;;;;2.10;1.58;;;;;;;;;;5075030;28;20043;-65
2023/05/15 00:19:58;;;;;;;1.80;1.70;;;;;;;;;;5056877;28;20407;-66
2023/05/15 00:22:25;;;;;;;1.90;1.58;;;;;;;;;;5075013;28;20028;-66
2023/05/15 00:24:50;;;;;;;2.25;1.70;;;;;;;;;;5074922;28;20039;-65
2023/05/15 00:27:15;;;;;;;1.90;1.80;;;;;;;;;;5074786;28;20029;-65
2023/05/15 00:29:41;;;;;;;1.77;1.67;;;;;;;;;;5075082;28;20033;-64
2023/05/15 00:34:55;;;;;;;2.00;1.90;;;;;;;;;;5072758;28;20039;-66
2023/05/15 00:37:22;;;;;;;1.55;1.45;;;;;;;;;;5074986;28;20040;-66
2023/05/15 00:39:47;;;;;;;2.78;1.70;;;;;;;;;;5075280;28;20376;-65
2023/05/15 00:42:14;;;;;;;2.78;1.67;;;;;;;;;;5075165;28;20107;-66
2023/05/15 00:44:40;;;;;;;1.65;1.50;;;;;;;;;;5075054;28;20078;-66
2023/05/15 00:47:06;;;;;;;1.90;1.80;;;;;;;;;;5056861;28;20028;-65
2023/05/15 00:49:34;;;;;;;2.42;1.80;;;;;;;;;;5056949;28;20079;-66
2023/05/15 00:52:02;;;;;;;3.20;1.90;;;;;;;;;;5074623;28;20021;-67
2023/05/15 00:54:27;;;;;;;2.97;1.73;;;;;;;;;;5056874;28;20044;-67
2023/05/15 00:56:55;;;;;;;1.70;1.60;;;;;;;;;;5074595;28;20017;-67
2023/05/15 00:59:21;;;;;;;2.55;1.90;;;;;;;;;;5057093;28;20025;-67
2023/05/15 01:01:46;;;;;;;2.05;1.85;;;;;;;;;;5074894;28;20016;-65
2023/05/15 01:04:12;;;;;;;2.20;2.05;;;;;;;;;;5056971;28;20091;-66
2023/05/15 01:06:37;;;;;;;1.70;1.60;;;;;;;;;;5074693;28;20040;-65
2023/05/15 01:09:04;;;;;;;2.20;2.10;;;;;;;;;;5056737;28;20032;-65
2023/05/15 01:11:34;;;;;;;2.25;2.10;;;;;;;;;;5056584;28;20064;-66
2023/05/15 01:14:06;;;;;;;2.40;2.00;;;;;;;;;;5074577;28;20078;-66
2023/05/15 01:16:32;;;;;;;2.42;2.22;;;;;;;;;;5074535;28;20033;-66
2023/05/15 01:18:57;;;;;;;2.25;2.05;;;;;;;;;;5056416;28;20039;-67
2023/05/15 01:21:27;;;;;;;2.30;2.20;;;;;;;;;;5056807;28;20083;-65
2023/05/15 01:24:11;;;;;;;1.90;1.80;;;;;;;;;;5056400;28;20440;-65
2023/05/15 01:26:43;;;;;;;2.38;1.85;;;;;;;;;;5074388;28;20103;-66
2023/05/15 01:29:31;;;;;;;2.00;1.90;;;;;;;;;;5056462;28;20036;-66
2023/05/15 01:32:00;;;;;;;2.08;1.98;;;;;;;;;;5056147;28;20480;-64
2023/05/15 01:34:30;;;;;;;2.40;2.20;;;;;;;;;;5073763;28;20072;-64
2023/05/15 01:36:58;;;;;;;2.03;1.92;;;;;;;;;;5055740;28;20373;-63
2023/05/15 01:39:26;;;;;;;1.90;1.80;;;;;;;;;;5055662;28;20020;-63
2023/05/15 01:41:51;;;;;;;2.30;2.10;;;;;;;;;;5074205;28;20021;-62
2023/05/15 01:44:30;;;;;;;2.05;1.95;;;;;;;;;;5055747;28;20035;-62
2023/05/15 01:47:00;;;;;;;2.22;1.90;;;;;;;;;;5074332;28;20024;-62
2023/05/15 01:49:26;;;;;;;2.00;1.90;;;;;;;;;;5073770;28;20040;-62
2023/05/15 01:51:58;;;;;;;2.13;1.95;;;;;;;;;;5074228;28;20107;-62
2023/05/15 01:54:23;;;;;;;2.28;2.13;;;;;;;;;;5073925;28;20044;-65
2023/05/15 01:56:50;;;;;;;2.40;2.30;;;;;;;;;;5056137;28;20032;-67
2023/05/15 01:59:17;;;;;;;1.90;1.80;;;;;;;;;;5036028;28;20120;-66
2023/05/15 02:01:44;;;;;;;2.28;2.08;;;;;;;;;;5035962;28;20017;-65
2023/05/15 02:04:10;;;;;;;1.90;1.80;;;;;;;;;;5036181;28;20551;-65
2023/05/15 02:06:35;;;;;;;2.30;2.10;;;;;;;;;;5053528;28;20037;-65
2023/05/15 02:09:01;;;;;;;2.05;1.95;;;;;;;;;;5053488;28;20071;-65
2023/05/15 02:11:26;;;;;;;2.08;1.95;;;;;;;;;;5035876;28;20033;-64
2023/05/15 02:13:53;;;;;;;2.00;1.88;;;;;;;;;;5035679;28;20029;-64
2023/05/15 02:16:19;;;;;;;2.00;1.90;;;;;;;;;;5053580;28;20032;-62
2023/05/15 02:18:44;;;;;;;1.85;1.75;;;;;;;;;;5035717;28;20082;-62
2023/05/15 02:21:10;;;;;;;2.20;2.10;;;;;;;;;;5053532;28;20104;-62
2023/05/15 02:23:35;;;;;;;1.90;1.80;;;;;;;;;;5053641;28;20460;-63
2023/05/15 02:26:13;;;;;;;2.10;2.00;;;;;;;;;;5053599;28;20025;-64
2023/05/15 02:28:44;;;;;;;1.88;1.77;;;;;;;;;;5035622;28;20037;-61
2023/05/15 02:31:15;;;;;;;1.80;1.70;;;;;;;;;;5053789;28;20520;-61
2023/05/15 02:33:53;;;;;;;2.00;1.90;;;;;;;;;;5034188;28;20045;-64
2023/05/15 02:36:21;;;;;;;1.83;1.73;;;;;;;;;;5034604;28;20083;-64
2023/05/15 02:38:51;;;;;;;1.92;1.83;;;;;;;;;;5052381;28;20037;-64
2023/05/15 02:41:18;;;;;;;2.73;1.67;;;;;;;;;;5038811;28;20082;-64
2023/05/15 02:43:44;;;;;;;1.80;1.70;;;;;;;;;;5054314;28;20032;-64
2023/05/15 02:46:10;;;;;;;1.83;1.73;;;;;;;;;;5072305;28;20013;-64
2023/05/15 02:48:40;;;;;;;1.83;1.73;;;;;;;;;;5072227;28;20032;-64
2023/05/15 02:51:05;;;;;;;1.50;1.42;;;;;;;;;;5073460;28;20032;-64
2023/05/15 02:53:31;;;;;;;2.03;1.92;;;;;;;;;;5055465;28;20070;-64
2023/05/15 02:55:56;;;;;;;1.65;1.55;;;;;;;;;;5075786;28;20052;-64
2023/05/15 02:58:22;;;;;;;1.88;1.77;;;;;;;;;;5076821;28;20017;-64
2023/05/15 03:00:47;;;;;;;2.97;1.80;;;;;;;;;;5059292;28;20085;-63
2023/05/15 03:03:13;;;;;;;2.15;1.55;;;;;;;;;;5058904;28;20024;-63
2023/05/15 03:05:38;;;;;;;4.38;1.95;;;;;;;;;;5077005;28;20465;-64
2023/05/15 03:08:04;;;;;;;1.70;1.60;;;;;;;;;;5076252;28;20491;-64
2023/05/15 03:10:29;;;;;;;1.80;1.70;;;;;;;;;;5076350;28;20495;-64
2023/05/15 03:12:57;;;;;;;2.00;1.90;;;;;;;;;;5058786;28;20060;-65
2023/05/15 03:15:22;;;;;;;1.67;1.58;;;;;;;;;;5059547;28;20029;-64
2023/05/15 03:17:49;;;;;;;1.80;1.70;;;;;;;;;;5058850;28;20043;-65
2023/05/15 03:20:14;;;;;;;1.73;1.63;;;;;;;;;;5058969;28;20126;-65
2023/05/15 03:22:40;;;;;;;1.73;1.73;;;;;;;;;;5076833;28;20468;-65
2023/05/15 03:25:05;;;;;;;2.15;2.00;;;;;;;;;;5076902;28;20025;-63
2023/05/15 03:27:31;;;;;;;2.20;2.10;;;;;;;;;;5058705;28;20034;-64
2023/05/15 03:29:56;;;;;;;2.00;1.90;;;;;;;;;;5058622;28;20024;-64
2023/05/15 03:32:22;;;;;;;2.08;1.80;;;;;;;;;;5058775;28;20033;-64
2023/05/15 03:34:47;;;;;;;2.38;1.70;;;;;;;;;;5076430;28;20457;-64
2023/05/15 03:37:13;;;;;;;1.70;1.60;;;;;;;;;;5069202;28;20067;-64
2023/05/15 03:39:38;;;;;;;1.65;1.55;;;;;;;;;;5056698;28;20029;-64
2023/05/15 03:42:03;;;;;;;1.92;1.77;;;;;;;;;;5056577;28;20499;-64
2023/05/15 03:44:29;;;;;;;1.42;1.40;;;;;;;;;;5056421;28;20028;-64
2023/05/15 03:46:55;;;;;;;2.33;1.65;;;;;;;;;;5055015;28;20032;-64
2023/05/15 03:49:21;;;;;;;1.75;1.65;;;;;;;;;;5056388;28;20032;-63
2023/05/15 03:51:46;;;;;;;1.58;1.48;;;;;;;;;;5055840;28;20509;-64
2023/05/15 03:54:12;;;;;;;1.50;1.40;;;;;;;;;;5055730;28;20025;-64
2023/05/15 03:56:37;;;;;;;2.55;1.65;;;;;;;;;;5056705;28;20124;-65
2023/05/15 03:59:03;;;;;;;1.70;1.60;;;;;;;;;;5058078;28;20025;-65
2023/05/15 04:01:29;;;;;;;1.77;1.67;;;;;;;;;;5075413;28;20040;-65
2023/05/15 04:03:54;;;;;;;2.17;1.42;;;;;;;;;;5056915;28;20119;-65
2023/05/15 04:06:21;;;;;;;1.75;1.60;;;;;;;;;;5075224;28;20535;-65
2023/05/15 04:08:47;;;;;;;1.88;1.35;;;;;;;;;;5057288;28;20035;-65
2023/05/15 04:11:12;;;;;;;1.52;1.42;;;;;;;;;;5074853;28;20024;-65
2023/05/15 04:13:37;;;;;;;1.40;1.30;;;;;;;;;;5074331;28;20494;-65
2023/05/15 04:16:03;;;;;;;1.60;1.50;;;;;;;;;;5074662;28;20032;-64
2023/05/15 04:18:28;;;;;;;2.50;1.45;;;;;;;;;;5074610;28;20021;-65
2023/05/15 04:20:53;;;;;;;2.92;1.40;;;;;;;;;;5075073;28;20066;-62
2023/05/15 04:23:19;;;;;;;1.70;1.60;;;;;;;;;;5067524;28;20368;-62
2023/05/15 04:25:47;;;;;;;1.77;1.30;;;;;;;;;;5074810;28;20081;-61
2023/05/15 04:28:12;;;;;;;1.40;1.30;;;;;;;;;;5074555;28;20483;-61
2023/05/15 04:30:38;;;;;;;1.27;1.17;;;;;;;;;;5075355;28;20036;-61
2023/05/15 04:33:03;;;;;;;1.40;1.15;;;;;;;;;;5075092;28;20514;-63
2023/05/15 04:35:29;;;;;;;1.50;1.30;;;;;;;;;;5057244;28;20060;-60
2023/05/15 04:37:55;;;;;;;1.25;1.20;;;;;;;;;;5074821;28;20429;-60
2023/05/15 04:40:20;;;;;;;1.42;1.33;;;;;;;;;;5074997;28;20028;-60
2023/05/15 04:42:46;;;;;;;2.40;1.30;;;;;;;;;;5074663;28;20024;-61
2023/05/15 04:45:11;;;;;;;1.30;1.20;;;;;;;;;;5074618;28;20025;-63
2023/05/15 04:47:38;;;;;;;1.15;1.15;;;;;;;;;;5074852;28;20052;-63
2023/05/15 04:50:03;;;;;;;1.95;1.33;;;;;;;;;;5074711;28;20036;-63
2023/05/15 04:52:29;;;;;;;1.15;1.15;;;;;;;;;;5075067;28;20082;-63
2023/05/15 04:54:54;;;;;;;1.10;1.10;;;;;;;;;;5074925;28;20024;-63
2023/05/15 04:57:20;;;;;;;1.58;1.48;;;;;;;;;;5074506;28;20033;-63
2023/05/15 04:59:45;;;;;;;2.70;1.25;;;;;;;;;;5074373;28;20410;-61
2023/05/15 05:02:11;;;;;;;2.63;1.63;;;;;;;;;;5074206;28;20024;-61
2023/05/15 05:04:36;;;;;;;1.60;1.50;;;;;;;;;;5056161;28;20032;-62
2023/05/15 05:07:04;;;;;;;1.63;1.52;;;;;;;;;;5074166;28;20383;-61
2023/05/15 05:09:29;;;;;;;1.13;1.13;;;;;;;;;;5074188;28;20085;-62
2023/05/15 05:11:57;;;;;;;1.35;1.25;;;;;;;;;;5056602;28;20103;-63
2023/05/15 05:14:22;;;;;;;1.20;1.20;;;;;;;;;;5074163;28;20032;-63
2023/05/15 05:16:49;;;;;;;1.40;1.30;;;;;;;;;;5074001;28;20028;-63
2023/05/15 05:19:14;;;;;;;1.38;1.23;;;;;;;;;;5055045;28;20035;-63
2023/05/15 05:21:39;;;;;;;1.50;1.40;;;;;;;;;;5073964;28;20115;-63
2023/05/15 05:24:05;;;;;;;1.20;1.20;;;;;;;;;;5074443;28;20040;-63
2023/05/15 05:26:30;;;;;;;1.40;1.17;;;;;;;;;;5074445;28;20081;-63
2023/05/15 05:28:56;;;;;;;1.35;1.30;;;;;;;;;;5056730;28;20109;-63
2023/05/15 05:31:21;;;;;;;1.50;1.40;;;;;;;;;;5056918;28;20025;-63
2023/05/15 05:33:48;;;;;;;1.23;1.15;;;;;;;;;;5073407;28;20484;-63
2023/05/15 05:36:13;;;;;;;2.08;1.17;;;;;;;;;;5074101;28;20086;-63
2023/05/15 05:38:39;;;;;;;1.23;1.13;;;;;;;;;;5073030;28;20021;-64
2023/05/15 05:41:04;;;;;;;1.27;1.23;;;;;;;;;;5072694;28;20063;-63
2023/05/15 05:43:32;;;;;;;1.52;1.42;;;;;;;;;;5073024;28;20032;-63
2023/05/15 05:45:58;;;;;;;1.63;1.52;;;;;;;;;;5056007;28;20040;-63
2023/05/15 05:48:25;;;;;;;2.47;2.17;;;;;;;;;;5038602;28;20116;-63
2023/05/15 05:50:51;;;;;;;1.60;1.50;;;;;;;;;;5053892;28;20040;-63
2023/05/15 05:53:16;;;;;;;2.10;1.65;;;;;;;;;;5072691;28;20036;-63
2023/05/15 05:55:42;;;;;;;1.80;1.67;;;;;;;;;;5071569;28;20392;-63
2023/05/15 05:58:07;;;;;;;1.65;1.55;;;;;;;;;;5071806;28;20117;-63
2023/05/15 06:00:32;;;;;;;2.03;1.30;;;;;;;;;;5071848;28;20024;-63
2023/05/15 06:02:58;;;;;;;1.50;1.40;;;;;;;;;;5071848;28;20452;-63
2023/05/15 06:05:24;;;;;;;1.50;1.40;;;;;;;;;;5071647;28;20043;-63
2023/05/15 06:07:50;;;;;;;1.98;1.83;;;;;;;;;;5071455;28;20025;-63
2023/05/15 06:10:15;;;;;;;1.95;1.60;;;;;;;;;;5071942;28;20039;-63
2023/05/15 06:12:41;;;;;;;3.05;2.10;;;;;;;;;;5072260;28;20115;-63
2023/05/15 06:15:06;;;;;;;3.92;2.92;;;;;;;;;;5072754;28;20020;-63
2023/05/15 06:17:32;;;;;;;1.95;1.77;;;;;;;;;;5072968;28;20078;-63
2023/05/15 06:19:57;;;;;;;2.70;1.90;;;;;;;;;;5073161;28;20071;-63
2023/05/15 06:22:22;;;;;;;3.58;3.13;;;;;;;;;;5073359;28;20033;-63
2023/05/15 06:24:47;;;;;;;2.28;1.90;;;;;;;;;;5073403;28;20020;-63
2023/05/15 06:27:13;;;;;;;4.40;1.90;;;;;;;;;;5073266;28;20496;-63
2023/05/15 06:29:38;;;;;;;2.35;2.10;;;;;;;;;;5057518;28;20483;-63
2023/05/15 06:32:04;;;;;;;2.08;1.88;;;;;;;;;;5077306;28;20029;-63
2023/05/15 06:34:29;;;;;;;2.10;2.00;;;;;;;;;;5077134;28;20040;-63
2023/05/15 06:36:54;;;;;;;2.72;1.60;;;;;;;;;;5059295;28;20537;-63
2023/05/15 06:39:20;;;;;;;2.10;1.90;;;;;;;;;;5059191;28;20031;-63
2023/05/15 06:41:45;;;;;;;1.80;1.70;;;;;;;;;;5077102;28;20028;-63
2023/05/15 06:44:11;;;;;;;2.03;1.92;;;;;;;;;;5059119;28;20025;-63
2023/05/15 06:46:36;;;;;;;2.25;1.75;;;;;;;;;;5077025;28;20470;-63
2023/05/15 06:49:01;;;;;;;2.28;1.77;;;;;;;;;;5076983;28;20475;-63
2023/05/15 06:51:27;;;;;;;3.42;1.83;;;;;;;;;;5076972;28;20083;-63
2023/05/15 06:53:52;;;;;;;3.70;1.67;;;;;;;;;;5076848;28;20498;-63
2023/05/15 06:56:17;;;;;;;3.22;2.00;;;;;;;;;;5076765;28;20050;-63
2023/05/15 06:58:43;;;;;;;2.05;1.85;;;;;;;;;;5076804;28;20028;-63
2023/05/15 07:01:08;;;;;;;1.77;1.65;;;;;;;;;;5076748;28;20033;-63
2023/05/15 07:03:34;;;;;;;1.88;1.77;;;;;;;;;;5076733;28;20063;-63
2023/05/15 07:05:59;;;;;;;1.63;1.52;;;;;;;;;;5076598;28;20016;-63
2023/05/15 07:08:24;;;;;;;1.80;1.70;;;;;;;;;;5076589;28;20028;-63
2023/05/15 07:10:50;;;;;;;2.05;1.90;;;;;;;;;;5076535;28;20040;-63
2023/05/15 07:13:16;;;;;;;1.67;1.58;;;;;;;;;;5076625;28;20535;-63
2023/05/15 07:15:42;;;;;;;1.80;1.70;;;;;;;;;;5076537;28;20102;-63
2023/05/15 07:18:07;;;;;;;2.53;2.33;;;;;;;;;;5076658;28;20039;-63
2023/05/15 07:20:33;;;;;;;2.30;2.17;;;;;;;;;;5076639;28;20036;-63
2023/05/15 07:22:58;;;;;;;2.30;2.10;;;;;;;;;;5076342;28;20444;-63
2023/05/15 07:25:24;;;;;;;1.40;1.30;;;;;;;;;;5076300;28;20020;-63
2023/05/15 07:27:49;;;;;;;1.77;1.67;;;;;;;;;;5076282;28;20060;-63
2023/05/15 07:30:15;;;;;;;1.70;1.45;;;;;;;;;;5076199;28;20016;-63
2023/05/15 07:32:40;;;;;;;2.55;1.23;;;;;;;;;;5076030;28;20036;-63
2023/05/15 07:35:06;;;;;;;1.55;1.40;;;;;;;;;;5076138;28;20127;-63
2023/05/15 07:37:31;;;;;;;1.58;1.48;;;;;;;;;;5076295;28;20091;-63
2023/05/15 07:39:56;;;;;;;1.45;1.40;;;;;;;;;;5075918;28;20028;-63
2023/05/15 07:42:22;;;;;;;1.55;1.45;;;;;;;;;;5075362;28;20028;-63
2023/05/15 07:44:47;;;;;;;1.60;1.50;;;;;;;;;;5057996;28;20115;-63
2023/05/15 07:47:12;;;;;;;3.88;1.30;;;;;;;;;;5075902;28;20079;-63
2023/05/15 07:49:38;;;;;;;1.38;1.27;;;;;;;;;;5075872;28;20036;-63
2023/05/15 07:52:03;;;;;;;1.35;1.35;;;;;;;;;;5075745;28;20073;-61
2023/05/15 07:54:30;;;;;;;1.50;1.40;;;;;;;;;;5075772;28;20035;-63
2023/05/15 07:56:57;;;;;;;1.30;1.30;;;;;;;;;;5075621;28;20039;-61
2023/05/15 07:59:22;;;;;;;2.25;1.45;;;;;;;;;;5075666;28;20021;-62
2023/05/15 08:01:48;;;;;;;1.40;1.30;;;;;;;;;;5075639;28;20040;-61
2023/05/15 08:04:13;;;;;;;1.98;1.48;;;;;;;;;;5075614;28;20063;-61
2023/05/15 08:06:38;;;;;;;1.40;1.35;;;;;;;;;;5075580;28;20025;-61
2023/05/15 08:09:04;;;;;;;1.98;1.23;;;;;;;;;;5075542;28;20108;-61
2023/05/15 08:11:29;;;;;;;1.75;1.50;;;;;;;;;;5075404;28;20036;-61
2023/05/15 08:13:55;;;;;;;1.52;1.42;;;;;;;;;;5075473;28;20033;-61
2023/05/15 08:16:20;;;;;;;1.70;1.60;;;;;;;;;;5075276;28;20032;-61
2023/05/15 08:18:46;;;;;;;1.48;1.40;;;;;;;;;;5075361;28;20032;-61
2023/05/15 08:21:11;;;;;;;1.75;1.35;;;;;;;;;;5075257;28;20035;-61
2023/05/15 08:23:37;;;;;;;2.10;1.77;;;;;;;;;;5075188;28;20119;-61
2023/05/15 08:26:02;;;;;;;1.63;1.52;;;;;;;;;;5075152;28;20024;-61
2023/05/15 08:28:27;;;;;;;1.55;1.45;;;;;;;;;;5075231;28;20041;-61
2023/05/15 08:30:53;;;;;;;1.40;1.38;;;;;;;;;;5075035;28;20024;-61
2023/05/15 08:33:19;;;;;;;2.00;1.58;;;;;;;;;;5074813;28;20048;-61
2023/05/15 08:35:45;;;;;;;2.47;2.28;;;;;;;;;;5075032;28;20396;-61
2023/05/15 08:38:10;;;;;;;2.58;2.47;;;;;;;;;;5074838;28;20020;-61
2023/05/15 08:40:35;;;;;;;3.20;2.92;;;;;;;;;;5074897;28;20028;-61
2023/05/15 08:43:09;;;;;;;3.55;3.13;;;;;;;;;;5074782;28;20503;-61
2023/05/15 08:45:34;;;;;;;2.83;2.65;;;;;;;;;;5074792;28;20024;-61
2023/05/15 08:48:00;;;;;;;3.78;3.58;;;;;;;;;;5074688;28;20471;-61
2023/05/15 08:50:27;;;;;;;2.08;1.98;;;;;;;;;;5074676;28;20020;-61
2023/05/15 08:52:57;;;;;;;2.60;2.50;;;;;;;;;;5074645;28;20044;-61
2023/05/15 08:55:22;;;;;;;3.58;3.33;;;;;;;;;;5074756;28;20044;-61
2023/05/15 08:57:48;;;;;;;3.55;3.35;;;;;;;;;;5056633;28;20036;-62
2023/05/15 09:00:13;;;;;;;2.92;2.72;;;;;;;;;;5074483;28;20028;-63
2023/05/15 09:02:39;;;;;;;2.80;2.60;;;;;;;;;;5074491;28;20028;-63
2023/05/15 09:05:05;;;;;;;2.33;2.22;;;;;;;;;;5074464;28;20032;-63
2023/05/15 09:07:30;;;;;;;2.95;2.75;;;;;;;;;;5074385;28;20059;-63
2023/05/15 09:09:56;;;;;;;2.90;2.72;;;;;;;;;;5074212;28;20032;-63
2023/05/15 09:12:22;;;;;;;2.78;2.58;;;;;;;;;;5074145;28;20037;-63
2023/05/15 09:14:48;;;;;;;2.47;2.38;;;;;;;;;;5074206;28;20046;-63
2023/05/15 09:17:13;;;;;;;2.83;2.70;;;;;;;;;;5074171;28;20032;-63
2023/05/15 09:19:39;;;;;;;2.75;2.65;;;;;;;;;;5056545;28;20029;-63
2023/05/15 09:22:22;;;;;;;2.42;2.33;;;;;;;;;;5056219;28;20353;-63
2023/05/15 09:24:48;;;;;;;2.90;2.72;;;;;;;;;;5056102;28;20120;-63
2023/05/15 09:27:13;;;;;;;2.50;2.40;;;;;;;;;;5056098;28;20044;-63
2023/05/15 09:29:38;;;;;;;3.00;2.80;;;;;;;;;;5074025;28;20115;-63
2023/05/15 09:32:09;;;;;;;3.15;2.95;;;;;;;;;;5073833;28;20036;-62
2023/05/15 09:34:34;;;;;;;;;;;;;;;;;;5056197;28;20089;-62
2023/05/15 09:37:00;;;;;;;2.42;2.22;;;;;;;;;;5055901;28;20434;-61
2023/05/15 09:39:26;;;;;;;2.15;2.05;;;;;;;;;;5073799;28;20032;-61
2023/05/15 09:41:52;;;;;;;2.78;2.58;;;;;;;;;;5073753;28;20025;-61
2023/05/15 09:44:19;;;;;;;2.70;2.50;;;;;;;;;;5073820;28;20074;-61
2023/05/15 09:46:45;;;;;;;1.80;1.67;;;;;;;;;;5073613;28;20442;-61
2023/05/15 09:49:11;;;;;;;2.10;2.00;;;;;;;;;;5073627;28;20032;-61
2023/05/15 09:51:36;;;;;;;1.65;1.55;;;;;;;;;;5073634;28;20131;-61
2023/05/15 09:54:02;;;;;;;1.73;1.63;;;;;;;;;;5073565;28;20436;-61
2023/05/15 09:56:27;;;;;;;1.42;1.33;;;;;;;;;;5073494;28;20041;-61
2023/05/15 09:58:53;;;;;;;1.58;1.48;;;;;;;;;;5073582;28;20031;-61
2023/05/15 10:01:19;;;;;;;1.98;1.88;;;;;;;;;;5055516;28;20061;-61
2023/05/15 10:03:58;;;;;;;1.50;1.40;;;;;;;;;;5073103;28;20047;-61
2023/05/15 10:06:23;;;;;;;1.45;1.35;;;;;;;;;;5073454;28;20035;-61
2023/05/15 10:08:53;;;;;;;5.30;2.42;;;;;;;;;;5073412;28;20028;-61
2023/05/15 10:11:18;;;;;;;2.45;2.25;;;;;;;;;;5055525;28;20043;-61
2023/05/15 10:13:44;;;;;;;1.38;1.27;;;;;;;;;;5073444;28;20028;-61
2023/05/15 10:16:10;;;;;;;1.63;1.52;;;;;;;;;;5055513;28;20353;-61
2023/05/15 10:18:36;;;;;;;2.35;2.17;;;;;;;;;;5073437;28;20091;-61
2023/05/15 10:21:03;;;;;;;1.85;1.75;;;;;;;;;;5073282;28;20153;-61
2023/05/15 10:23:29;;;;;;;1.20;1.20;;;;;;;;;;5073308;28;20044;-61
2023/05/15 10:26:01;;;;;;;0.85;0.85;;;;;;;;;;5073323;28;20028;-62
2023/05/15 10:28:27;;;;;;;1.85;1.15;;;;;;;;;;5073403;28;20382;-61
2023/05/15 10:30:53;;;;;;;1.25;1.15;;;;;;;;;;5073226;28;20115;-61
2023/05/15 10:33:18;;;;;;;1.85;1.70;;;;;;;;;;5073230;28;20056;-61
2023/05/15 10:35:44;;;;;;;1.25;1.20;;;;;;;;;;5073204;28;20472;-61
2023/05/15 10:38:10;;;;;;;1.83;1.73;;;;;;;;;;5073110;28;20490;-61
2023/05/15 10:40:36;;;;;;;1.88;1.77;;;;;;;;;;5055299;28;20023;-61
2023/05/15 10:43:02;;;;;;;2.53;2.40;;;;;;;;;;5073146;28;20064;-61
2023/05/15 10:45:28;;;;;;;2.15;1.88;;;;;;;;;;5073157;28;20051;-61
2023/05/15 10:47:54;;;;;;;1.15;1.15;;;;;;;;;;5055178;28;20020;-61
2023/05/15 10:50:20;;;;;;;2.15;1.65;;;;;;;;;;5055141;28;20028;-61
2023/05/15 10:52:45;;;;;;;1.48;1.38;;;;;;;;;;5073015;28;20028;-61
2023/05/15 10:55:15;;;;;;;1.67;1.58;;;;;;;;;;5072999;28;20107;-61
2023/05/15 10:57:40;;;;;;;1.92;1.77;;;;;;;;;;5072918;28;20033;-61
2023/05/15 11:00:21;;;;;;;2.72;1.92;;;;;;;;;;5072980;28;20077;-61
2023/05/15 11:02:46;;;;;;;;;;;;;;;;;;5055529;28;20029;-61
2023/05/15 11:05:13;;;;;;;1.08;1.08;;;;;;;;;;5055400;28;20061;-61
2023/05/15 11:07:38;;;;;;;0.98;0.98;;;;;;;;;;5055221;28;20024;-61
2023/05/15 11:10:23;;;;;;;1.35;1.25;;;;;;;;;;5054908;28;20031;-61
2023/05/15 11:12:55;;;;;;;1.40;1.30;;;;;;;;;;5072687;28;20051;-61
2023/05/15 11:15:21;;;;;;;1.98;1.08;;;;;;;;;;5072865;28;20036;-61
2023/05/15 11:18:05;;;;;;;1.33;0.90;;;;;;;;;;5058321;28;20036;-61
2023/05/15 11:20:31;;;;;;;1.02;1.02;;;;;;;;;;5076415;28;20107;-61
2023/05/15 11:22:58;;;;;;;0.90;0.90;;;;;;;;;;5076321;28;20028;-61
2023/05/15 11:25:28;;;;;;;0.95;0.95;;;;;;;;;;5076335;28;20093;-61
2023/05/15 11:27:54;;;;;;;2.22;1.02;;;;;;;;;;5076270;28;20036;-61
2023/05/15 11:30:23;;;;;;;1.10;1.00;;;;;;;;;;5076104;28;20032;-61
2023/05/15 11:32:50;;;;;;;1.30;1.20;;;;;;;;;;5075961;28;20040;-61
2023/05/15 11:35:32;;;;;;;1.40;1.35;;;;;;;;;;5076072;28;20043;-61
2023/05/15 11:37:59;;;;;;;1.42;1.33;;;;;;;;;;5058150;28;20287;-61
2023/05/15 11:40:26;;;;;;;1.20;1.15;;;;;;;;;;5075994;28;20016;-61
2023/05/15 11:42:57;;;;;;;0.93;0.93;;;;;;;;;;5076067;28;20450;-61
2023/05/15 11:45:22;;;;;;;1.23;1.13;;;;;;;;;;5076056;28;20040;-61
2023/05/15 11:47:48;;;;;;;1.17;1.10;;;;;;;;;;5076030;28;20033;-61
2023/05/15 11:50:22;;;;;;;2.63;2.00;;;;;;;;;;5075950;28;20105;-61
2023/05/15 11:52:48;;;;;;;2.38;1.20;;;;;;;;;;5058036;28;20075;-61
2023/05/15 11:55:14;;;;;;;1.75;1.65;;;;;;;;;;5075759;28;20060;-61
2023/05/15 11:57:39;;;;;;;1.60;1.50;;;;;;;;;;5075665;28;20029;-61
2023/05/15 12:00:05;;;;;;;1.13;1.13;;;;;;;;;;5075675;28;20507;-61
2023/05/15 12:02:30;;;;;;;1.45;1.10;;;;;;;;;;5075619;28;20449;-61
2023/05/15 12:04:56;;;;;;;1.17;1.05;;;;;;;;;;5075590;28;20040;-61
2023/05/15 12:07:21;;;;;;;1.10;1.10;;;;;;;;;;5075517;28;20472;-61
2023/05/15 12:09:51;;;;;;;1.08;1.05;;;;;;;;;;5057500;28;20032;-61
2023/05/15 12:12:16;;;;;;;1.70;1.35;;;;;;;;;;5075470;28;20116;-61
2023/05/15 12:14:42;;;;;;;2.60;1.38;;;;;;;;;;5057413;28;20128;-61
2023/05/15 12:17:07;;;;;;;1.70;1.45;;;;;;;;;;5057429;28;20040;-61
2023/05/15 12:19:33;;;;;;;1.75;1.58;;;;;;;;;;5057413;28;20033;-61
2023/05/15 12:21:58;;;;;;;1.40;1.30;;;;;;;;;;5075185;28;20029;-61
2023/05/15 12:24:24;;;;;;;1.13;1.13;;;;;;;;;;5075130;28;20025;-61
2023/05/15 12:26:50;;;;;;;1.58;1.48;;;;;;;;;;5056879;28;20487;-61
2023/05/15 12:29:16;;;;;;;1.42;1.33;;;;;;;;;;5075074;28;20032;-61
2023/05/15 12:31:42;;;;;;;1.67;1.10;;;;;;;;;;5074978;28;20111;-61
2023/05/15 12:34:13;;;;;;;1.38;1.27;;;;;;;;;;5074803;28;20046;-61
2023/05/15 12:36:40;;;;;;;1.45;1.35;;;;;;;;;;5074557;28;20037;-61
2023/05/15 12:39:06;;;;;;;1.48;1.38;;;;;;;;;;5075041;28;20089;-61
2023/05/15 12:41:32;;;;;;;1.23;1.23;;;;;;;;;;5057081;28;20025;-61
2023/05/15 12:43:57;;;;;;;1.20;1.20;;;;;;;;;;5074882;28;20554;-61
2023/05/15 12:46:28;;;;;;;1.20;1.20;;;;;;;;;;5074812;28;20028;-61
2023/05/15 12:48:56;;;;;;;1.45;1.17;;;;;;;;;;5074736;28;20430;-61
2023/05/15 12:51:21;;;;;;;2.35;1.75;;;;;;;;;;5074676;28;20066;-61
2023/05/15 12:53:47;;;;;;;3.03;2.83;;;;;;;;;;5056801;28;20657;-61
2023/05/15 12:56:14;;;;;;;3.90;3.65;;;;;;;;;;5057092;28;20028;-61
2023/05/15 12:58:40;;;;;;;3.33;2.58;;;;;;;;;;5074405;28;20037;-61
2023/05/15 13:01:09;;;;;;;2.60;2.50;;;;;;;;;;5074336;28;20024;-60
2023/05/15 13:03:34;;;;;;;2.20;2.10;;;;;;;;;;5074441;28;20069;-61
2023/05/15 13:06:01;;;;;;;2.05;1.85;;;;;;;;;;5074385;28;20024;-60
2023/05/15 13:08:26;;;;;;;1.70;1.60;;;;;;;;;;5056398;28;20487;-60
2023/05/15 13:10:55;;;;;;;2.10;1.58;;;;;;;;;;5074233;28;20024;-61
2023/05/15 13:13:20;;;;;;;1.80;1.70;;;;;;;;;;5074275;28;20036;-63
2023/05/15 13:15:49;;;;;;;3.67;3.25;;;;;;;;;;5074226;28;20021;-63
2023/05/15 13:18:16;;;;;;;2.45;2.25;;;;;;;;;;5074128;28;20400;-63
2023/05/15 13:20:45;;;;;;;1.85;1.67;;;;;;;;;;5056241;28;20056;-63
2023/05/15 13:23:13;;;;;;;2.00;1.90;;;;;;;;;;5074107;28;20024;-63
2023/05/15 13:25:39;;;;;;;1.60;1.50;;;;;;;;;;5056543;28;20055;-62
2023/05/15 13:28:05;;;;;;;1.58;1.48;;;;;;;;;;5074228;28;20021;-63
2023/05/15 13:30:31;;;;;;;4.07;2.90;;;;;;;;;;5056039;28;20060;-62
2023/05/15 13:32:58;;;;;;;1.75;1.65;;;;;;;;;;5073689;28;20519;-64
2023/05/15 13:35:25;;;;;;;1.48;1.38;;;;;;;;;;5056108;28;20090;-62
2023/05/15 13:37:51;;;;;;;1.70;1.60;;;;;;;;;;5055998;28;20024;-62
2023/05/15 13:40:16;;;;;;;2.10;1.90;;;;;;;;;;5073366;28;20396;-62
2023/05/15 13:42:42;;;;;;;3.83;3.22;;;;;;;;;;5073769;28;20035;-64
2023/05/15 13:45:08;;;;;;;3.30;3.00;;;;;;;;;;5073792;28;20030;-63
2023/05/15 13:47:33;;;;;;;3.15;2.40;;;;;;;;;;5073709;28;20028;-64
2023/05/15 13:49:59;;;;;;;1.42;1.33;;;;;;;;;;5073670;28;20498;-64
2023/05/15 13:52:25;;;;;;;1.48;1.38;;;;;;;;;;5055074;28;20035;-62
2023/05/15 13:54:51;;;;;;;1.55;1.25;;;;;;;;;;5055363;28;20354;-63
2023/05/15 13:57:16;;;;;;;1.20;1.10;;;;;;;;;;5055693;28;20510;-62
2023/05/15 13:59:42;;;;;;;1.10;1.10;;;;;;;;;;5073496;28;20099;-62
2023/05/15 14:02:07;;;;;;;1.33;1.33;;;;;;;;;;5073678;28;20028;-62
2023/05/15 14:04:33;;;;;;;1.33;1.23;;;;;;;;;;5073955;28;20095;-63
2023/05/15 14:06:59;;;;;;;3.13;2.33;;;;;;;;;;5073402;28;20427;-61
2023/05/15 14:09:26;;;;;;;3.28;2.75;;;;;;;;;;5073464;28;20072;-60
2023/05/15 14:11:53;;;;;;;1.27;1.23;;;;;;;;;;5055996;28;20035;-62
2023/05/15 14:14:18;;;;;;;1.35;1.25;;;;;;;;;;5055577;28;20123;-62
2023/05/15 14:16:44;;;;;;;3.45;3.17;;;;;;;;;;5073446;28;20103;-62
2023/05/15 14:19:09;;;;;;;2.28;1.90;;;;;;;;;;5073478;28;20025;-62
2023/05/15 14:21:34;;;;;;;1.90;1.58;;;;;;;;;;5073430;28;20104;-62
2023/05/15 14:24:00;;;;;;;1.42;1.33;;;;;;;;;;5055393;28;20029;-62
2023/05/15 14:26:25;;;;;;;4.00;2.80;;;;;;;;;;5073552;28;20078;-62
2023/05/15 14:28:50;;;;;;;1.70;1.60;;;;;;;;;;5072268;28;20025;-60
2023/05/15 14:31:16;;;;;;;2.40;2.20;;;;;;;;;;5073405;28;20020;-60
2023/05/15 14:33:41;;;;;;;1.85;1.75;;;;;;;;;;5073080;28;20286;-60
2023/05/15 14:36:06;;;;;;;1.73;1.63;;;;;;;;;;5055303;28;20037;-61
2023/05/15 14:38:32;;;;;;;2.42;1.60;;;;;;;;;;5073138;28;20056;-60
2023/05/15 14:40:57;;;;;;;2.55;2.10;;;;;;;;;;5073266;28;20495;-61